In Rescue
 
Open Full Screen Window  High Contrast Mode
Wind Gusting 00 knots
03
October 19, 2020 7:12 PM CDT
Weather Information
Wind Direction
  060 °
Wind Speed
  03 kt (3 mph)
Wind Gust
  00 kt (0 mph)
Altimeter
30.25 in
Visibility
10 SM
Temperature
00° C
32° F
Dewpoint
-03° C
27° F
Humidity
80%
1hr Rain Fall
00.00 in.
24hr Rain Fall
00.00 in.
Sky Condition
Overcast @ 5,000 ft
Broken @ 4,400 ft
VFR

METAR KACQ 200012Z AUTO 06003KT 10SM BKN044 OVC050 00/M03 A3025 RMK AO2

FAA Disclaimer: The data displayed is for advisory purposes only and is not to be used for flight planning or operations.